Alessandro F — IBVQ — position and weather

sailwx.info

Track history (hours):
 
Tides and Currents Weather Stations Pressure Air Temp Water Temp Dewpoint Dewpoint Depression Visibility Wind Speed Wind Dir Waves Ship Positions

Alessandro F

Last reported at 2015-Jul-03 04:32 UTC. Time now 2015-Jul-03 06:15 UTC.
Position N 39°06' E 009°02'.

Length 100 m; draft 5.3 m.

Type: Tanker. MMSI: 247046400.

Date/timePositionNaut miles runAvg speedWind from/ knotsBaromVisibWave heightAir tempDewpointWater temp
2015-Jul-03 04:32N 39°06' E 009°02'0 0.0
2015-Jul-03 03:32N 39°06' E 009°02'0 0.0
2015-Jul-03 02:29N 39°06' E 009°02'0 0.0
2015-Jul-03 01:32N 39°06' E 009°02'0 0.0
2015-Jul-03 00:32N 39°06' E 009°02'0 0.0
2015-Jul-02 23:32N 39°06' E 009°02'0 0.0
2015-Jul-02 22:29N 39°06' E 009°02'0 0.0
2015-Jul-02 21:29N 39°06' E 009°02'0 0.0
2015-Jul-02 20:32N 39°06' E 009°02'0 0.0
2015-Jul-02 19:32N 39°06' E 009°02'0 0.0
2015-Jul-02 18:32N 39°06' E 009°02'0 0.0
2015-Jul-02 17:32N 39°06' E 009°02'0 0.0
2015-Jul-02 16:26N 39°06' E 009°02'0 0.0
2015-Jul-02 15:32N 39°06' E 009°02'0 0.0
2015-Jul-02 14:26N 39°06' E 009°02'0 0.0
2015-Jul-02 13:32N 39°06' E 009°02'0 0.0
2015-Jul-02 12:29N 39°06' E 009°02'0 0.0
2015-Jul-02 11:17N 39°06' E 009°02'0 0.0
2015-Jul-02 10:23N 39°06' E 009°02'0 0.0
2015-Jul-02 09:34N 39°06' E 009°02'7 7.0
2015-Jul-02 08:33N 39°00' E 009°07'1413.4
2015-Jul-02 07:30N 38°50' E 008°54'5412.5
2015-Jul-02 03:08N 38°56' E 007°45'2613.4
2015-Jul-02 01:10N 39°09' E 007°15'813.7
2015-Jul-02 00:33N 39°13' E 007°06'1413.7
2015-Jul-01 23:33N 39°20' E 006°50'5613.7
2015-Jul-01 19:28N 39°47' E 005°47'1313.8
2015-Jul-01 18:33N 39°53' E 005°32'1313.6
2015-Jul-01 17:33N 39°59' E 005°17'1413.5
2015-Jul-01 16:33N 40°06' E 005°01'1413.2
2015-Jul-01 15:31N 40°12' E 004°46'1413.7
2015-Jul-01 14:30N 40°19' E 004°29'1313.8
2015-Jul-01 13:32N 40°26' E 004°14'2913.7
2015-Jul-01 11:23N 40°40' E 003°40'1113.8
2015-Jul-01 10:33N 40°45' E 003°27'1413.6
2015-Jul-01 09:33N 40°52' E 003°11'1413.5
2015-Jul-01 08:33N 40°58' E 002°55'1413.6
2015-Jul-01 07:32N 41°05' E 002°39'1813.6
2015-Jul-01 06:14N 41°13' E 002°19'912.4
2015-Jul-01 05:33N 41°19' E 002°10'3 0.1
2015-Jun-30 04:17N 41°17' E 002°14'1013.7
2015-Jun-30 03:33N 41°22' E 002°26'1313.4
2015-Jun-30 02:33N 41°29' E 002°41'5313.1
2015-Jun-29 22:33N 41°53' E 003°44'1413.2
2015-Jun-29 21:31N 41°57' E 004°01'3913.0
2015-Jun-29 18:30N 42°09' E 004°51'1313.5
2015-Jun-29 17:33N 42°13' E 005°08'1313.3
2015-Jun-29 16:33N 42°16' E 005°25'1513.3
2015-Jun-29 15:26N 42°21' E 005°44'7713.1
2015-Jun-29 09:33N 42°43' E 007°24'1312.9
2015-Jun-29 08:33N 42°47' E 007°41'1713.1
2015-Jun-29 07:17N 42°52' E 008°03'1012.8
2015-Jun-29 06:31N 42°55' E 008°16'3912.7
2015-Jun-29 03:27N 43°06' E 009°07'1213.0
2015-Jun-29 02:33N 43°10' E 009°22'1713.1
2015-Jun-29 01:17N 43°10' E 009°45'1113.0
2015-Jun-29 00:27N 43°07' E 009°59'1213.3
2015-Jun-28 23:33N 43°01' E 010°13'1313.4
2015-Jun-28 22:33N 42°55' E 010°29'12 0.7
2015-Jun-28 05:11N 42°53' E 010°45'812.8
2015-Jun-28 04:33N 42°53' E 010°33'1614.3
2015-Jun-28 03:27N 42°60' E 010°14'1314.1
2015-Jun-28 02:33N 43°06' E 009°59'1413.7
2015-Jun-28 01:33N 43°13' E 009°43'1413.5
2015-Jun-28 00:33N 43°16' E 009°24'1413.9
2015-Jun-27 23:33N 43°13' E 009°06'1414.2
2015-Jun-27 22:33N 43°10' E 008°47'4314.3
2015-Jun-27 19:31N 42°58' E 007°50'1414.2
2015-Jun-27 18:33N 42°55' E 007°32'2813.7
2015-Jun-27 16:32N 42°50' E 006°54'1313.6
2015-Jun-27 15:33N 42°47' E 006°37'1313.3
2015-Jun-27 14:33N 42°45' E 006°19'1913.0
2015-Jun-27 13:04N 42°48' E 005°53'713.3
2015-Jun-27 12:33N 42°49' E 005°44'1413.6
2015-Jun-27 11:33N 42°51' E 005°25'1313.4
2015-Jun-27 10:33N 43°01' E 005°12'1414.3
2015-Jun-27 09:33N 43°12' E 005°01'1211.6
2015-Jun-27 08:34N 43°24' E 004°59'0 0.3
2015-Jun-27 07:33N 43°24' E 004°60'0 0.0
2015-Jun-27 06:33N 43°24' E 004°60'0 0.0
2015-Jun-27 05:33N 43°24' E 004°60'0 0.0
2015-Jun-27 04:32N 43°24' E 004°60'0 0.0
2015-Jun-27 03:33N 43°24' E 004°60'0 0.0
2015-Jun-27 02:32N 43°24' E 004°60'0 0.0
2015-Jun-27 01:32N 43°24' E 004°60'0 0.0
2015-Jun-27 00:32N 43°24' E 004°60'0 0.0
2015-Jun-26 23:32N 43°24' E 004°60'0 0.0
2015-Jun-26 22:32N 43°24' E 004°60'0 0.0
2015-Jun-26 21:29N 43°24' E 004°60'0 0.0
2015-Jun-26 20:32N 43°24' E 004°60'0 0.0
2015-Jun-26 19:32N 43°24' E 004°60'0 0.0
2015-Jun-26 18:32N 43°24' E 004°60'0 0.0
2015-Jun-26 17:29N 43°24' E 004°60'0 0.0
2015-Jun-26 16:32N 43°24' E 004°60'0 0.0
2015-Jun-26 15:32N 43°24' E 004°60'0 0.0
2015-Jun-26 14:32N 43°24' E 004°60'3 3.4
2015-Jun-26 13:33N 43°21' E 004°59'1110.6
2015-Jun-26 12:33N 43°10' E 004°59'1413.4
2015-Jun-26 11:33N 43°11' E 004°41'1413.6
2015-Jun-26 10:33N 43°14' E 004°22'1413.6
2015-Jun-26 09:33N 43°16' E 004°04'1313.0
2015-Jun-26 08:34N 43°21' E 003°47'5 1.5
2015-Jun-26 05:26N 43°24' E 003°43'0 0.0
2015-Jun-26 01:14N 43°24' E 003°43'0 0.0
2015-Jun-25 23:14N 43°24' E 003°43'0 0.0
2015-Jun-25 20:26N 43°24' E 003°43'0 0.0
2015-Jun-25 12:32N 43°24' E 003°43'0 0.0
2015-Jun-24 20:24N 43°24' E 003°43'2 1.8
2015-Jun-24 19:33N 43°23' E 003°44'0 0.1
2015-Jun-24 18:30N 43°23' E 003°44'19 3.2
2015-Jun-24 12:21N 43°15' E 004°08'1113.8
2015-Jun-24 11:33N 43°12' E 004°23'1413.6
2015-Jun-24 10:33N 43°08' E 004°41'1414.2
2015-Jun-24 09:33N 43°04' E 004°59'1514.2
2015-Jun-24 08:29N 42°59' E 005°19'17313.3
2015-Jun-23 19:33N 43°25' E 009°13'612.9
2015-Jun-23 19:04N 43°27' E 009°22'  
Track history (hours):
 
Tides and Currents Weather Stations Pressure Air Temp Water Temp Dewpoint Dewpoint Depression Visibility Wind Speed Wind Dir Waves Ship Positions

Alessandro F

Last reported at 2015-Jul-03 04:32 UTC. Time now 2015-Jul-03 06:15 UTC.
Position N 39°06' E 009°02'.

Length 100 m; draft 5.3 m.

Type: Tanker. MMSI: 247046400.

Date/timePositionNaut miles runAvg speedWind from/ knotsBaromVisibWave heightAir tempDewpointWater temp
2015-Jul-03 04:32N 39°06' E 009°02'0 0.0
2015-Jul-03 03:32N 39°06' E 009°02'0 0.0
2015-Jul-03 02:29N 39°06' E 009°02'0 0.0
2015-Jul-03 01:32N 39°06' E 009°02'0 0.0
2015-Jul-03 00:32N 39°06' E 009°02'0 0.0
2015-Jul-02 23:32N 39°06' E 009°02'0 0.0
2015-Jul-02 22:29N 39°06' E 009°02'0 0.0
2015-Jul-02 21:29N 39°06' E 009°02'0 0.0
2015-Jul-02 20:32N 39°06' E 009°02'0 0.0
2015-Jul-02 19:32N 39°06' E 009°02'0 0.0
2015-Jul-02 18:32N 39°06' E 009°02'0 0.0
2015-Jul-02 17:32N 39°06' E 009°02'0 0.0
2015-Jul-02 16:26N 39°06' E 009°02'0 0.0
2015-Jul-02 15:32N 39°06' E 009°02'0 0.0
2015-Jul-02 14:26N 39°06' E 009°02'0 0.0
2015-Jul-02 13:32N 39°06' E 009°02'0 0.0
2015-Jul-02 12:29N 39°06' E 009°02'0 0.0
2015-Jul-02 11:17N 39°06' E 009°02'0 0.0
2015-Jul-02 10:23N 39°06' E 009°02'0 0.0
2015-Jul-02 09:34N 39°06' E 009°02'7 7.0
2015-Jul-02 08:33N 39°00' E 009°07'1413.4
2015-Jul-02 07:30N 38°50' E 008°54'5412.5
2015-Jul-02 03:08N 38°56' E 007°45'2613.4
2015-Jul-02 01:10N 39°09' E 007°15'813.7
2015-Jul-02 00:33N 39°13' E 007°06'1413.7
2015-Jul-01 23:33N 39°20' E 006°50'5613.7
2015-Jul-01 19:28N 39°47' E 005°47'1313.8
2015-Jul-01 18:33N 39°53' E 005°32'1313.6
2015-Jul-01 17:33N 39°59' E 005°17'1413.5
2015-Jul-01 16:33N 40°06' E 005°01'1413.2
2015-Jul-01 15:31N 40°12' E 004°46'1413.7
2015-Jul-01 14:30N 40°19' E 004°29'1313.8
2015-Jul-01 13:32N 40°26' E 004°14'2913.7
2015-Jul-01 11:23N 40°40' E 003°40'1113.8
2015-Jul-01 10:33N 40°45' E 003°27'1413.6
2015-Jul-01 09:33N 40°52' E 003°11'1413.5
2015-Jul-01 08:33N 40°58' E 002°55'1413.6
2015-Jul-01 07:32N 41°05' E 002°39'1813.6
2015-Jul-01 06:14N 41°13' E 002°19'912.4
2015-Jul-01 05:33N 41°19' E 002°10'3 0.1
2015-Jun-30 04:17N 41°17' E 002°14'1013.7
2015-Jun-30 03:33N 41°22' E 002°26'1313.4
2015-Jun-30 02:33N 41°29' E 002°41'5313.1
2015-Jun-29 22:33N 41°53' E 003°44'1413.2
2015-Jun-29 21:31N 41°57' E 004°01'3913.0
2015-Jun-29 18:30N 42°09' E 004°51'1313.5
2015-Jun-29 17:33N 42°13' E 005°08'1313.3
2015-Jun-29 16:33N 42°16' E 005°25'1513.3
2015-Jun-29 15:26N 42°21' E 005°44'7713.1
2015-Jun-29 09:33N 42°43' E 007°24'1312.9
2015-Jun-29 08:33N 42°47' E 007°41'1713.1
2015-Jun-29 07:17N 42°52' E 008°03'1012.8
2015-Jun-29 06:31N 42°55' E 008°16'3912.7
2015-Jun-29 03:27N 43°06' E 009°07'1213.0
2015-Jun-29 02:33N 43°10' E 009°22'1713.1
2015-Jun-29 01:17N 43°10' E 009°45'1113.0
2015-Jun-29 00:27N 43°07' E 009°59'1213.3
2015-Jun-28 23:33N 43°01' E 010°13'1313.4
2015-Jun-28 22:33N 42°55' E 010°29'12 0.7
2015-Jun-28 05:11N 42°53' E 010°45'812.8
2015-Jun-28 04:33N 42°53' E 010°33'1614.3
2015-Jun-28 03:27N 42°60' E 010°14'1314.1
2015-Jun-28 02:33N 43°06' E 009°59'1413.7
2015-Jun-28 01:33N 43°13' E 009°43'1413.5
2015-Jun-28 00:33N 43°16' E 009°24'1413.9
2015-Jun-27 23:33N 43°13' E 009°06'1414.2
2015-Jun-27 22:33N 43°10' E 008°47'4314.3
2015-Jun-27 19:31N 42°58' E 007°50'1414.2
2015-Jun-27 18:33N 42°55' E 007°32'2813.7
2015-Jun-27 16:32N 42°50' E 006°54'1313.6
2015-Jun-27 15:33N 42°47' E 006°37'1313.3
2015-Jun-27 14:33N 42°45' E 006°19'1913.0
2015-Jun-27 13:04N 42°48' E 005°53'713.3
2015-Jun-27 12:33N 42°49' E 005°44'1413.6
2015-Jun-27 11:33N 42°51' E 005°25'1313.4
2015-Jun-27 10:33N 43°01' E 005°12'1414.3
2015-Jun-27 09:33N 43°12' E 005°01'1211.6
2015-Jun-27 08:34N 43°24' E 004°59'0 0.3
2015-Jun-27 07:33N 43°24' E 004°60'0 0.0
2015-Jun-27 06:33N 43°24' E 004°60'0 0.0
2015-Jun-27 05:33N 43°24' E 004°60'0 0.0
2015-Jun-27 04:32N 43°24' E 004°60'0 0.0
2015-Jun-27 03:33N 43°24' E 004°60'0 0.0
2015-Jun-27 02:32N 43°24' E 004°60'0 0.0
2015-Jun-27 01:32N 43°24' E 004°60'0 0.0
2015-Jun-27 00:32N 43°24' E 004°60'0 0.0
2015-Jun-26 23:32N 43°24' E 004°60'0 0.0
2015-Jun-26 22:32N 43°24' E 004°60'0 0.0
2015-Jun-26 21:29N 43°24' E 004°60'0 0.0
2015-Jun-26 20:32N 43°24' E 004°60'0 0.0
2015-Jun-26 19:32N 43°24' E 004°60'0 0.0
2015-Jun-26 18:32N 43°24' E 004°60'0 0.0
2015-Jun-26 17:29N 43°24' E 004°60'0 0.0
2015-Jun-26 16:32N 43°24' E 004°60'0 0.0
2015-Jun-26 15:32N 43°24' E 004°60'0 0.0
2015-Jun-26 14:32N 43°24' E 004°60'3 3.4
2015-Jun-26 13:33N 43°21' E 004°59'1110.6
2015-Jun-26 12:33N 43°10' E 004°59'1413.4
2015-Jun-26 11:33N 43°11' E 004°41'1413.6
2015-Jun-26 10:33N 43°14' E 004°22'1413.6
2015-Jun-26 09:33N 43°16' E 004°04'1313.0
2015-Jun-26 08:34N 43°21' E 003°47'5 1.5
2015-Jun-26 05:26N 43°24' E 003°43'0 0.0
2015-Jun-26 01:14N 43°24' E 003°43'0 0.0
2015-Jun-25 23:14N 43°24' E 003°43'0 0.0
2015-Jun-25 20:26N 43°24' E 003°43'0 0.0
2015-Jun-25 12:32N 43°24' E 003°43'0 0.0
2015-Jun-24 20:24N 43°24' E 003°43'2 1.8
2015-Jun-24 19:33N 43°23' E 003°44'0 0.1
2015-Jun-24 18:30N 43°23' E 003°44'19 3.2
2015-Jun-24 12:21N 43°15' E 004°08'1113.8
2015-Jun-24 11:33N 43°12' E 004°23'1413.6
2015-Jun-24 10:33N 43°08' E 004°41'1414.2
2015-Jun-24 09:33N 43°04' E 004°59'1514.2
2015-Jun-24 08:29N 42°59' E 005°19'17313.3
2015-Jun-23 19:33N 43°25' E 009°13'612.9
2015-Jun-23 19:04N 43°27' E 009°22'  

Dump ship's entire track history